Terminal Aerodrome Forecast
Issued by NWS Twin Cities, MN

Home | Current Version | Previous Version | Graphics & Text | Print | Product List | Glossary On
Versions: 1 2 3 4 5 6 7 8 9 10 11 12 13 14 15 16 17 18 19 20 21 22 23 24 25 26 27 28 29 30 31 32 33
000
FTUS43 KMPX 171453 AAC
TAFMSP
TAF AMD
KMSP 171453Z 1715/1818 33015KT P6SM -RA SCT008 BKN020 OVC040
      TEMPO 1715/1717 BKN008
     FM171800 31017G23KT P6SM BKN020 OVC040
     FM180200 32007KT P6SM SKC
     FM181000 27005KT P6SM BKN120=

USA.gov is the U.S. government's official web portal to all federal, state and local government web resources and services.